RYR7GR EHEH-EGSS
Flight info
| Callsign | RYR7GR |
|---|---|
| Flight time | N/A |
| Altitude | 24000 |
| Route | ABNED L980 XAMAN |
| Aircraft | B738/M-SDE3FGILRWY/SB1 |
Departure
| Time | 2026-05-06 17:16 |
|---|---|
| Airport | Eindhoven Airport (EHEH) |
Arrival
| Time | N/A |
|---|---|
| Airport | London Stansted Airport (EGSS) |
| Time | Latitude | Longitude | Altitude | Speed | Heading |
|---|---|---|---|---|---|
| 2026-05-06 16:46 | 51.45587 | 5.38734 | 72 ft | 0 kts | 125° |
| 2026-05-06 17:05 | 51.45587 | 5.38733 | 72 ft | 0 kts | 125° |
| 2026-05-06 17:05 | 51.45589 | 5.38728 | 72 ft | 1 kts | 125° |
| 2026-05-06 17:05 | 51.45593 | 5.38720 | 65 ft | 1 kts | 124° |
| 2026-05-06 17:06 | 51.45596 | 5.38712 | 62 ft | 1 kts | 124° |
| 2026-05-06 17:06 | 51.45607 | 5.38687 | 62 ft | 4 kts | 123° |
| 2026-05-06 17:06 | 51.45621 | 5.38643 | 62 ft | 5 kts | 90° |
| 2026-05-06 17:06 | 51.45607 | 5.38595 | 63 ft | 5 kts | 35° |
| 2026-05-06 17:07 | 51.45603 | 5.38590 | 62 ft | 0 kts | 36° |
| 2026-05-06 17:08 | 51.45611 | 5.38600 | 65 ft | 7 kts | 36° |
| 2026-05-06 17:09 | 51.45658 | 5.38685 | 70 ft | 11 kts | 43° |
| 2026-05-06 17:09 | 51.45719 | 5.38752 | 74 ft | 10 kts | 35° |
| 2026-05-06 17:09 | 51.45780 | 5.38788 | 74 ft | 9 kts | 346° |
| 2026-05-06 17:09 | 51.45820 | 5.38717 | 74 ft | 9 kts | 303° |
| 2026-05-06 17:10 | 51.45853 | 5.38637 | 74 ft | 8 kts | 303° |
| 2026-05-06 17:10 | 51.45889 | 5.38554 | 69 ft | 12 kts | 305° |
| 2026-05-06 17:10 | 51.45950 | 5.38422 | 69 ft | 14 kts | 306° |
| 2026-05-06 17:10 | 51.45993 | 5.38312 | 70 ft | 4 kts | 281° |
| 2026-05-06 17:11 | 51.45963 | 5.38236 | 75 ft | 15 kts | 216° |
| 2026-05-06 17:11 | 51.45850 | 5.38110 | 73 ft | 29 kts | 214° |
| 2026-05-06 17:11 | 51.45647 | 5.37883 | 84 ft | 36 kts | 215° |
| 2026-05-06 17:11 | 51.45447 | 5.37661 | 82 ft | 31 kts | 214° |
| 2026-05-06 17:12 | 51.45313 | 5.37508 | 75 ft | 23 kts | 214° |
| 2026-05-06 17:12 | 51.45183 | 5.37368 | 68 ft | 22 kts | 214° |
| 2026-05-06 17:12 | 51.45061 | 5.37225 | 84 ft | 21 kts | 215° |
| 2026-05-06 17:12 | 51.44940 | 5.37089 | 84 ft | 21 kts | 215° |
| 2026-05-06 17:13 | 51.44821 | 5.36960 | 82 ft | 22 kts | 216° |
| 2026-05-06 17:13 | 51.44681 | 5.36800 | 85 ft | 25 kts | 215° |
| 2026-05-06 17:13 | 51.44540 | 5.36642 | 77 ft | 24 kts | 215° |
| 2026-05-06 17:13 | 51.44407 | 5.36492 | 72 ft | 23 kts | 215° |
| 2026-05-06 17:14 | 51.44280 | 5.36350 | 84 ft | 21 kts | 214° |
| 2026-05-06 17:14 | 51.44175 | 5.36277 | 84 ft | 14 kts | 162° |
| 2026-05-06 17:14 | 51.44142 | 5.36325 | 86 ft | 0 kts | 124° |
| 2026-05-06 17:15 | 51.44128 | 5.36360 | 83 ft | 12 kts | 116° |
| 2026-05-06 17:15 | 51.44133 | 5.36460 | 81 ft | 2 kts | 36° |
| 2026-05-06 17:15 | 51.44300 | 5.36655 | 73 ft | 79 kts | 34° |
| 2026-05-06 17:15 | 51.45009 | 5.37439 | 119 ft | 162 kts | 34° |
| 2026-05-06 17:16 | 51.46037 | 5.38580 | 862 ft | 194 kts | 34° |
| 2026-05-06 17:16 | 51.47158 | 5.39864 | 2048 ft | 198 kts | 35° |
| 2026-05-06 17:16 | 51.48274 | 5.41149 | 3319 ft | 200 kts | 36° |
| 2026-05-06 17:16 | 51.49415 | 5.42465 | 4361 ft | 214 kts | 36° |
| 2026-05-06 17:17 | 51.50732 | 5.43963 | 4862 ft | 254 kts | 34° |
| 2026-05-06 17:17 | 51.52377 | 5.45500 | 5087 ft | 278 kts | 22° |
| 2026-05-06 17:17 | 51.54227 | 5.46109 | 5508 ft | 273 kts | 357° |
| 2026-05-06 17:17 | 51.55983 | 5.44941 | 6442 ft | 274 kts | 318° |
| 2026-05-06 17:18 | 51.56940 | 5.42402 | 7725 ft | 265 kts | 283° |
| 2026-05-06 17:18 | 51.56829 | 5.39541 | 8963 ft | 256 kts | 247° |
| 2026-05-06 17:18 | 51.56047 | 5.37018 | 9996 ft | 254 kts | 246° |
| 2026-05-06 17:18 | 51.55254 | 5.34432 | 10700 ft | 261 kts | 241° |
| 2026-05-06 17:19 | 51.54366 | 5.31873 | 11503 ft | 264 kts | 244° |
| 2026-05-06 17:19 | 51.53917 | 5.28950 | 11905 ft | 284 kts | 271° |
| 2026-05-06 17:19 | 51.54061 | 5.25725 | 12154 ft | 308 kts | 277° |
| 2026-05-06 17:19 | 51.54294 | 5.22152 | 12385 ft | 334 kts | 277° |
| 2026-05-06 17:20 | 51.54531 | 5.18343 | 12852 ft | 349 kts | 276° |
| 2026-05-06 17:20 | 51.54749 | 5.14412 | 13621 ft | 356 kts | 276° |
| 2026-05-06 17:20 | 51.54947 | 5.10417 | 14385 ft | 360 kts | 275° |
| 2026-05-06 17:20 | 51.55131 | 5.06411 | 15230 ft | 361 kts | 275° |
| 2026-05-06 17:21 | 51.55308 | 5.02380 | 15939 ft | 366 kts | 275° |
| 2026-05-06 17:21 | 51.55425 | 4.99673 | 16414 ft | 369 kts | 274° |
| 2026-05-06 17:21 | 51.55602 | 4.95544 | 17188 ft | 372 kts | 274° |
| 2026-05-06 17:21 | 51.55778 | 4.91393 | 17984 ft | 374 kts | 274° |
| 2026-05-06 17:22 | 51.55953 | 4.87237 | 18835 ft | 371 kts | 274° |
| 2026-05-06 17:22 | 51.56325 | 4.83170 | 19724 ft | 367 kts | 283° |
| 2026-05-06 17:22 | 51.56960 | 4.79233 | 20584 ft | 364 kts | 284° |
| 2026-05-06 17:22 | 51.57631 | 4.75323 | 21383 ft | 363 kts | 284° |
| 2026-05-06 17:23 | 51.58306 | 4.71429 | 22184 ft | 362 kts | 283° |
| 2026-05-06 17:23 | 51.58976 | 4.67537 | 23001 ft | 360 kts | 283° |
| 2026-05-06 17:23 | 51.59634 | 4.63659 | 23669 ft | 360 kts | 283° |
| 2026-05-06 17:23 | 51.60286 | 4.59774 | 23874 ft | 358 kts | 283° |
| 2026-05-06 17:24 | 51.60928 | 4.55918 | 23897 ft | 357 kts | 283° |
| 2026-05-06 17:24 | 51.61569 | 4.52045 | 23897 ft | 359 kts | 283° |
| 2026-05-06 17:24 | 51.62209 | 4.48159 | 23904 ft | 359 kts | 283° |
| 2026-05-06 17:24 | 51.62847 | 4.44276 | 23902 ft | 360 kts | 283° |
| 2026-05-06 17:25 | 51.63485 | 4.40381 | 23897 ft | 360 kts | 283° |
| 2026-05-06 17:25 | 51.64121 | 4.36490 | 23893 ft | 359 kts | 283° |
| 2026-05-06 17:25 | 51.64763 | 4.32556 | 23899 ft | 359 kts | 283° |
| 2026-05-06 17:25 | 51.65291 | 4.29314 | 23900 ft | 358 kts | 283° |
| 2026-05-06 17:26 | 51.65921 | 4.25436 | 23892 ft | 358 kts | 282° |
| 2026-05-06 17:26 | 51.66557 | 4.21510 | 23888 ft | 357 kts | 282° |
| 2026-05-06 17:26 | 51.67182 | 4.17645 | 23881 ft | 356 kts | 282° |
| 2026-05-06 17:26 | 51.67806 | 4.13779 | 23896 ft | 355 kts | 282° |
| 2026-05-06 17:27 | 51.68424 | 4.09935 | 23887 ft | 355 kts | 282° |
| 2026-05-06 17:27 | 51.69041 | 4.06092 | 23897 ft | 354 kts | 282° |
| 2026-05-06 17:27 | 51.69639 | 4.02356 | 23891 ft | 353 kts | 282° |
| 2026-05-06 17:27 | 51.70252 | 3.98522 | 23903 ft | 353 kts | 282° |
| 2026-05-06 17:28 | 51.70862 | 3.94699 | 23903 ft | 352 kts | 281° |
| 2026-05-06 17:28 | 51.71471 | 3.90872 | 23899 ft | 352 kts | 282° |
| 2026-05-06 17:28 | 51.72078 | 3.87051 | 23906 ft | 352 kts | 282° |
| 2026-05-06 17:28 | 51.72717 | 3.83191 | 23907 ft | 352 kts | 283° |
| 2026-05-06 17:29 | 51.73416 | 3.79400 | 23909 ft | 352 kts | 284° |
| 2026-05-06 17:29 | 51.74133 | 3.75627 | 23909 ft | 352 kts | 285° |
| 2026-05-06 17:29 | 51.74854 | 3.71846 | 23909 ft | 352 kts | 284° |
| 2026-05-06 17:29 | 51.75563 | 3.68094 | 23914 ft | 352 kts | 284° |
| 2026-05-06 17:30 | 51.76277 | 3.64286 | 23910 ft | 352 kts | 284° |
| 2026-05-06 17:30 | 51.76979 | 3.60510 | 23914 ft | 351 kts | 284° |
| 2026-05-06 17:30 | 51.77680 | 3.56728 | 23916 ft | 351 kts | 284° |
| 2026-05-06 17:30 | 51.78378 | 3.52945 | 23921 ft | 351 kts | 284° |
| 2026-05-06 17:31 | 51.79075 | 3.49165 | 23921 ft | 352 kts | 284° |
| 2026-05-06 17:31 | 51.79772 | 3.45380 | 23922 ft | 352 kts | 284° |
| 2026-05-06 17:31 | 51.80465 | 3.41595 | 23927 ft | 352 kts | 284° |
| 2026-05-06 17:31 | 51.81159 | 3.37802 | 23931 ft | 351 kts | 284° |
| 2026-05-06 17:32 | 51.81859 | 3.33967 | 23934 ft | 352 kts | 284° |
| 2026-05-06 17:32 | 51.82550 | 3.30171 | 23932 ft | 352 kts | 284° |
| 2026-05-06 17:32 | 51.83242 | 3.26374 | 23939 ft | 352 kts | 284° |
| 2026-05-06 17:32 | 51.83928 | 3.22587 | 23938 ft | 351 kts | 284° |
| 2026-05-06 17:33 | 51.84536 | 3.18760 | 23931 ft | 350 kts | 277° |
| 2026-05-06 17:33 | 51.84754 | 3.14870 | 23938 ft | 347 kts | 267° |
| 2026-05-06 17:33 | 51.84581 | 3.10977 | 23951 ft | 346 kts | 263° |
| 2026-05-06 17:33 | 51.84321 | 3.07114 | 23944 ft | 346 kts | 262° |
| 2026-05-06 17:34 | 51.84047 | 3.03239 | 23939 ft | 347 kts | 262° |
| 2026-05-06 17:34 | 51.83778 | 2.99361 | 23937 ft | 347 kts | 262° |
| 2026-05-06 17:34 | 51.83514 | 2.95482 | 23947 ft | 347 kts | 262° |
| 2026-05-06 17:34 | 51.83255 | 2.91608 | 23945 ft | 347 kts | 262° |
| 2026-05-06 17:35 | 51.82997 | 2.87709 | 23944 ft | 347 kts | 262° |
| 2026-05-06 17:35 | 51.82736 | 2.83757 | 23941 ft | 346 kts | 262° |
| 2026-05-06 17:35 | 51.82484 | 2.79942 | 23949 ft | 346 kts | 262° |
| 2026-05-06 17:36 | 51.81967 | 2.72158 | 23943 ft | 346 kts | 262° |
| 2026-05-06 17:36 | 51.81708 | 2.68301 | 23945 ft | 346 kts | 262° |
| 2026-05-06 17:36 | 51.81447 | 2.64454 | 23951 ft | 346 kts | 262° |
| 2026-05-06 17:36 | 51.81182 | 2.60589 | 23954 ft | 345 kts | 262° |
| 2026-05-06 17:37 | 51.80917 | 2.56744 | 23939 ft | 342 kts | 262° |
| 2026-05-06 17:37 | 51.80653 | 2.52942 | 23946 ft | 340 kts | 262° |
| 2026-05-06 17:37 | 51.80391 | 2.49155 | 23952 ft | 338 kts | 262° |
| 2026-05-06 17:37 | 51.80127 | 2.45381 | 23923 ft | 338 kts | 262° |
| 2026-05-06 17:38 | 51.79861 | 2.41583 | 23685 ft | 337 kts | 263° |
| 2026-05-06 17:38 | 51.79600 | 2.37857 | 23355 ft | 335 kts | 262° |
| 2026-05-06 17:38 | 51.79337 | 2.34126 | 23015 ft | 332 kts | 263° |